Time;durP1;ratioP1;P1;durP2;ratioP2;P2;SDS_P1;SDS_P2;PMS_P1;PMS_P2;Temp;Humidity;BMP_temperature;BMP_pressure;BME280_temperature;BME280_humidity;BME280_pressure;Samples;Min_cycle;Max_cycle;Signal;HPM_P1;HPM_P2
2020/12/05 00:00:10;;;;;;;7.90;2.42;;;21.50;31.50;;;;;;5111410;28;20031;-75
2020/12/05 00:02:36;;;;;;;6.30;2.28;;;21.20;32.00;;;;;;5112206;28;20035;-75
2020/12/05 00:05:03;;;;;;;7.50;2.60;;;20.90;32.70;;;;;;5111260;28;20035;-75
2020/12/05 00:07:30;;;;;;;7.93;2.20;;;21.10;32.60;;;;;;5112290;28;20472;-75
2020/12/05 00:09:57;;;;;;;5.85;2.08;;;20.00;32.60;;;;;;5111770;28;20030;-75
2020/12/05 00:12:24;;;;;;;7.78;2.38;;;19.30;32.90;;;;;;5112175;28;20035;-74
2020/12/05 00:14:51;;;;;;;8.10;2.30;;;19.00;33.40;;;;;;5111996;28;20020;-75
2020/12/05 00:17:21;;;;;;;9.50;2.28;;;18.90;33.70;;;;;;5111762;28;20375;-74
2020/12/05 00:19:48;;;;;;;4.28;2.20;;;18.50;33.90;;;;;;5107425;28;20039;-73
2020/12/05 00:22:15;;;;;;;8.15;2.40;;;18.10;34.30;;;;;;5112429;28;20034;-74
2020/12/05 00:24:42;;;;;;;6.35;1.73;;;18.00;34.70;;;;;;5092891;28;20025;-76
2020/12/05 00:27:09;;;;;;;3.90;2.00;;;17.70;35.00;;;;;;5092826;28;20028;-76
2020/12/05 00:29:36;;;;;;;9.10;2.22;;;17.40;35.20;;;;;;5112190;28;20026;-80
2020/12/05 00:32:06;;;;;;;6.13;2.42;;;17.20;35.70;;;;;;5108350;28;20492;-75
2020/12/05 00:34:33;;;;;;;5.47;2.10;;;17.00;35.80;;;;;;5094700;28;20051;-75
2020/12/05 00:37:00;;;;;;;5.90;2.33;;;16.80;36.40;;;;;;5111783;28;20044;-74
2020/12/05 00:39:27;;;;;;;8.15;1.70;;;16.60;35.70;;;;;;5112064;28;20022;-74
2020/12/05 00:41:54;;;;;;;8.63;2.67;;;16.50;35.60;;;;;;5111885;28;20042;-75
2020/12/05 00:44:21;;;;;;;9.50;2.60;;;16.40;35.50;;;;;;5111644;28;20484;-75
2020/12/05 00:46:48;;;;;;;8.77;2.22;;;16.40;35.20;;;;;;5110252;28;20035;-75
2020/12/05 00:49:15;;;;;;;8.95;2.65;;;16.30;35.30;;;;;;5116281;28;20027;-75
2020/12/05 00:51:46;;;;;;;8.18;2.13;;;16.30;35.20;;;;;;5116337;28;20384;-74
2020/12/05 00:54:13;;;;;;;8.07;1.90;;;16.20;35.00;;;;;;5115983;28;20047;-75
2020/12/05 00:56:40;;;;;;;6.78;2.30;;;16.10;35.10;;;;;;5116141;28;20047;-76
2020/12/05 00:59:07;;;;;;;6.57;2.67;;;16.10;35.00;;;;;;5116193;28;20024;-76
2020/12/05 01:01:34;;;;;;;6.20;2.35;;;16.10;35.50;;;;;;5116295;28;20526;-75
2020/12/05 01:04:01;;;;;;;8.13;2.92;;;16.10;35.10;;;;;;5115543;28;20030;-75
2020/12/05 01:06:28;;;;;;;7.50;2.15;;;16.10;35.00;;;;;;5104293;28;20039;-74
2020/12/05 01:08:55;;;;;;;7.50;2.28;;;16.10;34.90;;;;;;5095424;28;20039;-74
2020/12/05 01:11:22;;;;;;;8.10;1.88;;;16.00;35.00;;;;;;5095649;28;20032;-74
2020/12/05 01:13:49;;;;;;;10.40;2.35;;;16.00;35.20;;;;;;5095407;28;20028;-76
2020/12/05 01:16:18;;;;;;;11.10;2.25;;;15.90;35.20;;;;;;5104029;28;20039;-75
2020/12/05 01:18:45;;;;;;;4.05;2.10;;;15.90;35.30;;;;;;5115507;28;20034;-76
2020/12/05 01:21:16;;;;;;;8.88;2.05;;;15.90;35.50;;;;;;5115838;28;20031;-75
2020/12/05 01:23:44;;;;;;;9.87;2.63;;;15.80;35.50;;;;;;5112237;28;20039;-74
2020/12/05 01:26:12;;;;;;;8.57;2.30;;;15.80;35.70;;;;;;5112533;28;20264;-74
2020/12/05 01:28:39;;;;;;;5.82;1.85;;;15.80;35.70;;;;;;5115639;28;20459;-75
2020/12/05 01:31:06;;;;;;;7.80;2.47;;;15.80;35.80;;;;;;5115319;28;20034;-75
2020/12/05 01:33:33;;;;;;;7.82;2.00;;;15.70;35.80;;;;;;5115346;28;20027;-75
2020/12/05 01:36:01;;;;;;;6.85;2.75;;;15.70;36.10;;;;;;5113917;28;20028;-74
2020/12/05 01:38:28;;;;;;;9.63;2.72;;;15.60;36.70;;;;;;5115376;28;20032;-74
2020/12/05 01:40:57;;;;;;;13.55;3.95;;;15.50;36.40;;;;;;5103585;28;20020;-73
2020/12/05 01:43:29;;;;;;;9.00;2.60;;;15.40;36.30;;;;;;5096162;28;20550;-74
2020/12/05 01:46:00;;;;;;;9.70;2.58;;;15.30;36.60;;;;;;5095821;28;20384;-73
2020/12/05 01:48:27;;;;;;;6.00;2.35;;;15.30;36.60;;;;;;5111125;28;20039;-73
2020/12/05 01:50:55;;;;;;;6.50;2.25;;;15.30;36.20;;;;;;5094973;28;20039;-73
2020/12/05 01:53:23;;;;;;;10.13;2.38;;;15.30;36.20;;;;;;5111778;28;20042;-73
2020/12/05 01:55:51;;;;;;;7.57;2.47;;;15.40;36.20;;;;;;5111096;28;20040;-74
2020/12/05 01:58:19;;;;;;;7.60;2.83;;;15.40;35.80;;;;;;5111213;28;20039;-74
2020/12/05 02:00:46;;;;;;;10.57;3.83;;;15.30;35.80;;;;;;5094830;28;20028;-73
2020/12/05 02:03:17;;;;;;;8.40;2.63;;;15.20;35.90;;;;;;5104581;28;20526;-75
2020/12/05 02:06:03;;;;;;;5.97;1.92;;;15.20;35.60;;;;;;5114741;28;20032;-74
2020/12/05 02:08:35;;;;;;;4.57;2.10;;;15.30;35.00;;;;;;5115063;28;20031;-75
2020/12/05 02:11:04;;;;;;;7.70;2.65;;;15.50;34.70;;;;;;5113204;28;20502;-74
2020/12/05 02:13:39;;;;;;;6.32;1.95;;;15.50;34.70;;;;;;5094269;28;20028;-75
2020/12/05 02:16:07;;;;;;;10.13;2.88;;;15.50;34.90;;;;;;5094574;28;20032;-74
2020/12/05 02:18:36;;;;;;;12.27;4.60;;;15.50;34.80;;;;;;5094134;28;20040;-74
2020/12/05 02:21:05;;;;;;;7.60;3.70;;;15.40;34.80;;;;;;5094114;28;20498;-74
2020/12/05 02:23:32;;;;;;;12.00;3.50;;;15.30;35.30;;;;;;5113680;28;20510;-74
2020/12/05 02:26:04;;;;;;;6.43;2.72;;;14.90;35.90;;;;;;5113749;28;20054;-74
2020/12/05 02:28:33;;;;;;;6.72;3.40;;;14.70;36.20;;;;;;5114162;28;20043;-74
2020/12/05 02:31:00;;;;;;;12.00;6.50;;;14.60;36.20;;;;;;5094694;28;20024;-74
2020/12/05 02:33:28;;;;;;;7.53;2.80;;;14.50;36.50;;;;;;5107445;28;20039;-73
2020/12/05 02:35:55;;;;;;;9.15;3.00;;;14.50;36.90;;;;;;5093806;28;20032;-73
2020/12/05 02:39:03;;;;;;;7.43;2.45;;;14.70;36.60;;;;;;5093744;28;20447;-73
2020/12/05 02:41:35;;;;;;;8.02;3.13;;;15.20;36.50;;;;;;5012075;28;20041;-72
2020/12/05 02:44:02;;;;;;;8.73;2.70;;;14.80;37.00;;;;;;5031046;28;20486;-72
2020/12/05 02:46:30;;;;;;;9.45;2.85;;;14.50;37.10;;;;;;5015996;28;20359;-72
2020/12/05 02:48:57;;;;;;;8.48;3.05;;;14.40;37.60;;;;;;5011431;28;20034;-73
2020/12/05 02:51:24;;;;;;;8.38;4.40;;;14.70;37.50;;;;;;5024223;28;20029;-72
2020/12/05 02:53:51;;;;;;;9.73;4.70;;;15.00;37.00;;;;;;5028517;28;20033;-72
2020/12/05 02:56:18;;;;;;;12.75;3.83;;;15.20;36.90;;;;;;5030558;28;20040;-72
2020/12/05 02:58:46;;;;;;;9.57;3.97;;;15.30;36.60;;;;;;5030042;28;20041;-72
2020/12/05 03:01:14;;;;;;;5.68;4.35;;;15.00;37.20;;;;;;5011258;28;20026;-72
2020/12/05 03:03:41;;;;;;;9.93;3.22;;;15.20;36.70;;;;;;5011998;28;20486;-72
2020/12/05 03:06:08;;;;;;;5.90;2.72;;;15.40;36.40;;;;;;4994670;28;20141;-72
2020/12/05 03:08:35;;;;;;;5.18;2.72;;;15.50;36.50;;;;;;5023027;28;20168;-71
2020/12/05 03:11:02;;;;;;;20.70;4.43;;;15.10;37.30;;;;;;5030033;28;20037;-71
2020/12/05 03:13:29;;;;;;;7.13;3.38;;;14.90;37.50;;;;;;5029394;28;20038;-71
2020/12/05 03:15:56;;;;;;;7.47;3.20;;;14.70;37.70;;;;;;5030740;28;20498;-71
2020/12/05 03:18:23;;;;;;;8.18;3.22;;;14.50;37.70;;;;;;5074012;28;20052;-71
2020/12/05 03:20:50;;;;;;;8.63;3.67;;;14.50;37.60;;;;;;5113510;28;20031;-71
2020/12/05 03:23:17;;;;;;;15.02;7.20;;;14.50;37.50;;;;;;5109623;28;20035;-71
2020/12/05 03:25:44;;;;;;;12.95;5.88;;;14.40;37.50;;;;;;5113491;28;20023;-70
2020/12/05 03:28:11;;;;;;;27.83;15.05;;;14.30;37.70;;;;;;5111932;28;20028;-70
2020/12/05 03:30:38;;;;;;;3.63;2.35;;;14.20;37.00;;;;;;5113201;28;20495;-69
2020/12/05 03:33:12;;;;;;;5.93;2.15;;;14.40;36.40;;;;;;5101644;28;20028;-71
2020/12/05 03:35:39;;;;;;;6.43;2.05;;;14.60;35.90;;;;;;5090569;28;20337;-72
2020/12/05 03:38:06;;;;;;;8.27;1.88;;;14.60;36.10;;;;;;5104030;28;20495;-73
2020/12/05 03:40:37;;;;;;;5.13;1.95;;;14.50;36.50;;;;;;5113059;28;20020;-71
2020/12/05 03:43:04;;;;;;;7.03;2.10;;;14.60;36.50;;;;;;5101869;28;20035;-71
2020/12/05 03:45:32;;;;;;;5.85;2.58;;;14.60;36.70;;;;;;5104134;28;20031;-71
2020/12/05 03:48:02;;;;;;;4.35;2.47;;;14.70;36.60;;;;;;5103183;28;20039;-74
2020/12/05 03:50:29;;;;;;;13.75;2.45;;;14.60;36.60;;;;;;5102210;28;20032;-72
2020/12/05 03:52:56;;;;;;;4.97;2.17;;;14.60;36.80;;;;;;5112843;28;20032;-73
2020/12/05 03:55:22;;;;;;;4.95;2.30;;;14.70;37.00;;;;;;5112377;28;20043;-71
2020/12/05 03:57:49;;;;;;;12.80;3.83;;;14.60;36.90;;;;;;5112626;28;20027;-71
2020/12/05 04:00:18;;;;;;;6.57;3.40;;;14.70;36.90;;;;;;5112489;28;20463;-71
2020/12/05 04:02:45;;;;;;;6.90;2.08;;;14.60;37.10;;;;;;5112680;28;20487;-71
2020/12/05 04:05:13;;;;;;;5.97;2.00;;;14.50;37.40;;;;;;5099581;28;20030;-70
2020/12/05 04:07:40;;;;;;;9.98;2.35;;;14.50;37.60;;;;;;5102753;28;20031;-70
2020/12/05 04:10:10;;;;;;;8.40;2.38;;;14.60;37.60;;;;;;5109513;28;20040;-70
2020/12/05 04:12:37;;;;;;;12.60;3.83;;;14.50;37.80;;;;;;5099039;28;20040;-72
2020/12/05 04:15:04;;;;;;;8.23;3.20;;;14.50;37.90;;;;;;5097512;28;20484;-69
2020/12/05 04:17:31;;;;;;;9.90;2.25;;;14.50;37.70;;;;;;5093209;28;20043;-68
2020/12/05 04:19:59;;;;;;;3.40;1.92;;;14.50;37.60;;;;;;5102149;28;20031;-69
2020/12/05 04:22:26;;;;;;;8.38;2.28;;;14.70;37.60;;;;;;5101002;28;20032;-70
2020/12/05 04:24:55;;;;;;;8.65;2.30;;;14.70;37.40;;;;;;5106464;28;20027;-69
2020/12/05 04:27:23;;;;;;;6.40;2.30;;;14.80;37.30;;;;;;5112116;28;20020;-68
2020/12/05 04:29:51;;;;;;;4.53;1.80;;;14.70;37.40;;;;;;5109602;28;20044;-69
2020/12/05 04:32:18;;;;;;;5.88;1.92;;;14.70;37.40;;;;;;5107593;28;20024;-68
2020/12/05 04:34:45;;;;;;;8.95;2.08;;;14.60;37.60;;;;;;5091872;28;20032;-68
2020/12/05 04:37:12;;;;;;;11.70;2.25;;;14.50;37.70;;;;;;5102778;28;20019;-68
2020/12/05 04:39:39;;;;;;;12.27;2.45;;;14.60;37.60;;;;;;5111723;28;20032;-69
2020/12/05 04:42:07;;;;;;;12.95;1.98;;;14.60;37.70;;;;;;5101498;28;20027;-68
2020/12/05 04:44:34;;;;;;;5.93;2.13;;;14.60;37.40;;;;;;5094352;28;20032;-70
2020/12/05 04:47:02;;;;;;;5.50;2.05;;;14.60;37.40;;;;;;5091881;28;20024;-70
2020/12/05 04:49:29;;;;;;;11.05;3.40;;;14.70;37.40;;;;;;5110677;28;20027;-71
2020/12/05 04:52:20;;;;;;;5.97;1.85;;;14.60;37.20;;;;;;5111998;28;20464;-70
2020/12/05 04:54:55;;;;;;;3.55;2.03;;;14.60;37.50;;;;;;5111152;28;20139;-70
2020/12/05 04:57:25;;;;;;;6.55;1.92;;;14.60;37.50;;;;;;5111251;28;20448;-68
2020/12/05 04:59:54;;;;;;;9.23;2.38;;;14.70;37.40;;;;;;5091388;28;20032;-70
2020/12/05 05:02:30;;;;;;;10.10;2.33;;;14.60;37.30;;;;;;5092650;28;20519;-69
2020/12/05 05:04:57;;;;;;;12.88;2.30;;;14.70;37.30;;;;;;5098117;28;20040;-69
2020/12/05 05:07:24;;;;;;;10.35;2.40;;;14.70;37.40;;;;;;5091667;28;20027;-71
2020/12/05 05:10:15;;;;;;;8.32;3.22;;;14.70;37.10;;;;;;5094104;28;20020;-68
2020/12/05 05:12:42;;;;;;;7.72;2.35;;;14.70;37.20;;;;;;5106464;28;20027;-68
2020/12/05 05:15:29;;;;;;;11.57;2.30;;;14.70;37.00;;;;;;5092534;28;20043;-68
2020/12/05 05:18:01;;;;;;;8.13;2.63;;;14.90;36.90;;;;;;5095845;28;20036;-68
2020/12/05 05:20:37;;;;;;;5.80;2.40;;;14.80;37.00;;;;;;5108264;28;20031;-70
2020/12/05 05:23:15;;;;;;;5.53;3.58;;;14.80;37.10;;;;;;5111006;28;20024;-69
2020/12/05 05:25:59;;;;;;;7.75;2.50;;;14.80;37.20;;;;;;5109921;28;20156;-69
2020/12/05 05:28:34;;;;;;;6.93;2.40;;;14.90;37.00;;;;;;5092172;28;20024;-70
2020/12/05 05:31:07;;;;;;;5.50;1.92;;;15.00;36.90;;;;;;5092436;28;20016;-69
2020/12/05 05:33:41;;;;;;;11.00;1.88;;;15.00;36.30;;;;;;5092012;28;20028;-71
2020/12/05 05:36:16;;;;;;;4.55;1.83;;;15.20;35.80;;;;;;5106429;28;20031;-69
2020/12/05 05:38:44;;;;;;;4.47;1.85;;;15.20;35.50;;;;;;5115549;28;20042;-70
2020/12/05 05:41:20;;;;;;;3.72;1.80;;;15.20;35.40;;;;;;5115480;28;20020;-70
2020/12/05 05:43:53;;;;;;;4.10;1.92;;;15.10;35.70;;;;;;5115278;28;20039;-71
2020/12/05 05:46:25;;;;;;;11.50;4.22;;;14.90;35.90;;;;;;5115122;28;20028;-70
2020/12/05 05:48:54;;;;;;;;;;;14.70;36.40;;;;;;5115220;28;20024;-71
2020/12/05 05:51:40;;;;;;;8.43;2.20;;;14.70;36.30;;;;;;5114661;28;19904;-71
2020/12/05 05:54:35;;;;;;;7.88;2.40;;;14.70;36.10;;;;;;5112716;28;20032;-70
2020/12/05 05:57:13;;;;;;;5.75;1.92;;;14.70;35.80;;;;;;5031945;28;20508;-70
2020/12/05 05:59:45;;;;;;;7.65;3.72;;;14.70;35.80;;;;;;5031658;28;20429;-70
2020/12/05 06:02:16;;;;;;;17.95;8.70;;;14.60;36.40;;;;;;5032096;28;20045;-70
2020/12/05 06:04:47;;;;;;;6.90;3.97;;;14.40;36.50;;;;;;5031770;28;20044;-70
2020/12/05 06:07:18;;;;;;;7.47;3.88;;;14.50;36.10;;;;;;5031891;28;20510;-70
2020/12/05 06:09:54;;;;;;;7.68;3.22;;;14.40;36.00;;;;;;5032025;28;20037;-70
2020/12/05 06:12:26;;;;;;;5.32;2.40;;;14.30;36.10;;;;;;5031834;28;20030;-70
2020/12/05 06:14:54;;;;;;;6.00;1.90;;;14.30;36.20;;;;;;5031710;28;20033;-70
2020/12/05 06:17:25;;;;;;;3.88;2.00;;;14.20;36.80;;;;;;5031442;28;20338;-70
2020/12/05 06:19:55;;;;;;;8.20;2.10;;;14.10;36.70;;;;;;5031564;28;20389;-69
2020/12/05 06:22:28;;;;;;;7.95;2.45;;;14.00;37.10;;;;;;5031283;28;20306;-70
2020/12/05 06:25:09;;;;;;;4.88;1.65;;;13.90;37.50;;;;;;5031628;28;20040;-71
2020/12/05 06:27:40;;;;;;;3.53;1.70;;;13.90;37.00;;;;;;5031514;28;20584;-71
2020/12/05 06:30:09;;;;;;;4.60;1.25;;;13.90;36.40;;;;;;5027793;28;20478;-72
2020/12/05 06:32:47;;;;;;;6.28;1.70;;;14.00;36.00;;;;;;5023973;28;20038;-75
2020/12/05 06:35:23;;;;;;;5.50;1.40;;;14.00;35.90;;;;;;5094674;28;20362;-74
2020/12/05 06:37:52;;;;;;;3.20;1.58;;;14.10;35.70;;;;;;5094774;28;20027;-74
2020/12/05 06:40:20;;;;;;;3.17;1.58;;;14.10;35.70;;;;;;5106024;28;20024;-75
2020/12/05 06:42:49;;;;;;;5.57;1.50;;;14.10;35.90;;;;;;5113686;28;20027;-73
2020/12/05 06:45:40;;;;;;;3.97;1.80;;;14.20;35.60;;;;;;5095536;28;20032;-74
2020/12/05 06:48:10;;;;;;;3.40;1.30;;;14.20;35.30;;;;;;5049702;28;20397;-75
2020/12/05 06:50:42;;;;;;;2.85;1.30;;;14.30;35.10;;;;;;5045970;28;20037;-74
2020/12/05 06:53:21;;;;;;;4.60;1.23;;;14.30;35.30;;;;;;5031803;28;20083;-74
2020/12/05 06:55:53;;;;;;;8.02;1.80;;;14.20;35.30;;;;;;5036344;28;20076;-75
2020/12/05 06:58:28;;;;;;;4.88;1.80;;;14.10;35.80;;;;;;5045934;28;20048;-74
2020/12/05 07:00:55;;;;;;;2.22;1.23;;;14.10;36.10;;;;;;5031672;28;20494;-74
2020/12/05 07:03:30;;;;;;;4.82;1.85;;;14.00;36.10;;;;;;5032504;28;20029;-74
2020/12/05 07:05:58;;;;;;;5.32;2.35;;;14.00;36.30;;;;;;5013831;28;20045;-73
2020/12/05 07:08:36;;;;;;;5.55;2.53;;;13.90;36.50;;;;;;5034617;28;20034;-74
2020/12/05 07:11:15;;;;;;;10.57;3.78;;;13.90;36.40;;;;;;5034337;28;20025;-73
2020/12/05 07:13:47;;;;;;;37.92;14.32;;;13.70;36.80;;;;;;5032567;28;20044;-74
2020/12/05 07:16:21;;;;;;;23.67;11.95;;;13.60;36.60;;;;;;5031657;28;20029;-75
2020/12/05 07:18:54;;;;;;;12.98;5.38;;;13.60;36.90;;;;;;5035486;28;20057;-75
2020/12/05 07:21:22;;;;;;;6.10;2.00;;;13.60;37.00;;;;;;5049535;28;20040;-74
2020/12/05 07:23:50;;;;;;;7.57;1.75;;;13.40;37.50;;;;;;5050431;28;20036;-76
2020/12/05 07:26:17;;;;;;;6.05;2.10;;;13.40;37.20;;;;;;5090466;28;20048;-75
2020/12/05 07:28:49;;;;;;;3.13;1.55;;;13.40;37.20;;;;;;5093046;28;20425;-75
2020/12/05 07:31:17;;;;;;;8.02;4.47;;;13.50;36.80;;;;;;5093029;28;20058;-75
2020/12/05 07:33:45;;;;;;;16.08;8.30;;;13.50;37.20;;;;;;5093007;28;20070;-74
2020/12/05 07:36:14;;;;;;;4.30;2.47;;;13.40;37.00;;;;;;5100483;28;20043;-74
2020/12/05 07:38:43;;;;;;;2.67;1.77;;;13.40;37.10;;;;;;5112985;28;20487;-75
2020/12/05 07:41:15;;;;;;;4.80;2.10;;;13.40;37.10;;;;;;5113236;28;20023;-75
2020/12/05 07:43:43;;;;;;;5.78;2.00;;;13.30;37.60;;;;;;5112594;28;20355;-74
2020/12/05 07:46:12;;;;;;;3.28;1.58;;;13.30;37.90;;;;;;5112956;28;20479;-73
2020/12/05 07:48:40;;;;;;;6.43;1.67;;;13.20;38.70;;;;;;5112475;28;20024;-74
2020/12/05 07:51:17;;;;;;;5.65;1.70;;;13.20;38.40;;;;;;5112722;28;20023;-72
2020/12/05 07:53:46;;;;;;;3.13;1.30;;;13.20;38.10;;;;;;5112579;28;20026;-74
2020/12/05 07:56:19;;;;;;;3.50;1.65;;;13.10;37.90;;;;;;5112737;28;20054;-73
2020/12/05 07:58:55;;;;;;;3.80;2.08;;;13.10;37.80;;;;;;5111887;28;20376;-74
2020/12/05 08:02:09;;;;;;;4.07;1.80;;;13.00;38.30;;;;;;5112448;28;20027;-76
2020/12/05 08:04:55;;;;;;;8.88;2.20;;;12.90;38.10;;;;;;5029768;28;20038;-74
2020/12/05 08:07:27;;;;;;;5.95;1.80;;;12.90;38.40;;;;;;5029809;28;20145;-74
2020/12/05 08:09:55;;;;;;;6.85;1.65;;;12.80;38.40;;;;;;5029338;28;20030;-73
2020/12/05 08:12:48;;;;;;;3.83;1.90;;;12.80;38.50;;;;;;5009440;28;20133;-75
2020/12/05 08:15:20;;;;;;;7.45;2.10;;;12.70;38.70;;;;;;5009641;28;20042;-73
2020/12/05 08:17:48;;;;;;;3.50;1.75;;;12.70;38.80;;;;;;5009886;28;20029;-76
2020/12/05 08:20:15;;;;;;;4.75;2.00;;;12.60;38.80;;;;;;5013390;28;20046;-75
2020/12/05 08:22:42;;;;;;;7.68;2.03;;;12.60;38.90;;;;;;5010842;28;20062;-74
2020/12/05 08:25:11;;;;;;;10.90;2.28;;;12.60;38.80;;;;;;5009591;28;20045;-74
2020/12/05 08:27:39;;;;;;;8.77;2.22;;;12.50;39.30;;;;;;5009803;28;20125;-74
2020/12/05 08:30:06;;;;;;;5.63;2.20;;;12.40;39.40;;;;;;5010617;28;20029;-74
2020/12/05 08:32:34;;;;;;;5.38;2.00;;;12.30;39.80;;;;;;5010830;28;20033;-74
2020/12/05 08:35:08;;;;;;;8.02;2.95;;;12.30;40.00;;;;;;5027503;28;20525;-74
2020/12/05 08:37:35;;;;;;;5.38;2.38;;;12.20;40.10;;;;;;5009814;28;20041;-74
2020/12/05 08:40:03;;;;;;;5.72;2.00;;;12.30;40.30;;;;;;5064445;28;20047;-74
2020/12/05 08:42:30;;;;;;;5.07;2.35;;;12.20;40.00;;;;;;5092428;28;20024;-74
2020/12/05 08:44:57;;;;;;;6.25;2.17;;;12.20;40.20;;;;;;5091793;28;20046;-74
2020/12/05 08:47:24;;;;;;;6.78;2.65;;;12.10;40.20;;;;;;5092108;28;20023;-74
2020/12/05 08:49:51;;;;;;;6.90;2.50;;;12.10;40.60;;;;;;5111913;28;20032;-74
2020/12/05 08:52:18;;;;;;;8.60;2.55;;;12.10;40.90;;;;;;5097337;28;20031;-73
2020/12/05 08:54:53;;;;;;;7.05;2.17;;;12.00;40.90;;;;;;5096379;28;20051;-74
2020/12/05 08:57:21;;;;;;;4.90;2.35;;;12.00;41.20;;;;;;5091455;28;20020;-74
2020/12/05 08:59:58;;;;;;;7.78;2.28;;;12.00;41.50;;;;;;5106940;28;20480;-73
2020/12/05 09:02:36;;;;;;;10.45;2.55;;;11.90;41.50;;;;;;5109768;28;20379;-73
2020/12/05 09:05:03;;;;;;;7.47;2.67;;;11.80;41.30;;;;;;5098215;28;20031;-73
2020/12/05 09:07:30;;;;;;;4.85;1.90;;;11.70;41.10;;;;;;5091665;28;20043;-73
2020/12/05 09:09:57;;;;;;;5.25;1.85;;;11.60;41.10;;;;;;5091477;28;20055;-73
2020/12/05 09:12:32;;;;;;;8.45;2.80;;;11.60;41.10;;;;;;5096553;28;20023;-75
2020/12/05 09:15:06;;;;;;;8.07;2.22;;;11.50;41.30;;;;;;5096247;28;20090;-73
2020/12/05 09:17:34;;;;;;;7.07;2.45;;;11.50;41.60;;;;;;5095602;28;20020;-74
2020/12/05 09:20:15;;;;;;;7.85;2.30;;;11.70;41.20;;;;;;5111066;28;20047;-74
2020/12/05 09:22:48;;;;;;;;;;;11.90;41.10;;;;;;5114363;28;20054;-75
2020/12/05 09:25:34;;;;;;;11.77;3.35;;;11.90;40.90;;;;;;5113712;28;19907;-73
2020/12/05 09:28:02;;;;;;;8.38;3.05;;;12.00;41.10;;;;;;5094989;28;20051;-73
2020/12/05 09:30:29;;;;;;;12.88;3.63;;;12.10;41.30;;;;;;5112379;28;20043;-73
2020/12/05 09:32:56;;;;;;;8.85;3.72;;;12.10;41.40;;;;;;5112330;28;20031;-74
2020/12/05 09:35:27;;;;;;;12.63;4.97;;;12.30;41.40;;;;;;5109615;28;20028;-73
2020/12/05 09:37:56;;;;;;;11.77;4.37;;;12.40;41.70;;;;;;5098854;28;20024;-73
2020/12/05 09:40:23;;;;;;;8.27;3.78;;;12.30;41.50;;;;;;5115259;28;20031;-73
2020/12/05 09:42:50;;;;;;;9.73;3.28;;;12.20;41.20;;;;;;5111579;28;20038;-73
2020/12/05 09:45:17;;;;;;;8.70;3.25;;;12.20;41.20;;;;;;5101421;28;20030;-73
2020/12/05 09:47:44;;;;;;;8.40;3.35;;;12.20;41.70;;;;;;5113274;28;20031;-73
2020/12/05 09:50:14;;;;;;;7.68;2.92;;;12.20;41.60;;;;;;5097136;28;20024;-76
2020/12/05 09:52:42;;;;;;;7.03;2.85;;;12.10;41.70;;;;;;5094319;28;20035;-73
2020/12/05 09:55:10;;;;;;;11.60;4.28;;;12.00;42.10;;;;;;5096258;28;20055;-73
2020/12/05 09:57:37;;;;;;;11.50;3.75;;;12.00;42.80;;;;;;5095860;28;20032;-73
2020/12/05 10:00:08;;;;;;;11.80;4.90;;;12.00;43.00;;;;;;5094303;28;20126;-73
2020/12/05 10:02:37;;;;;;;12.40;5.77;;;11.90;43.20;;;;;;5094297;28;20024;-73
2020/12/05 10:05:05;;;;;;;11.43;5.35;;;11.90;43.90;;;;;;5108859;28;20026;-73
2020/12/05 10:07:32;;;;;;;10.45;5.38;;;11.90;43.40;;;;;;5112459;28;20460;-73
2020/12/05 10:09:59;;;;;;;11.25;5.95;;;11.90;43.90;;;;;;5114440;28;20059;-73
2020/12/05 10:12:26;;;;;;;17.17;6.47;;;11.80;44.00;;;;;;5101501;28;20047;-73
2020/12/05 10:14:53;;;;;;;14.52;6.25;;;11.90;44.30;;;;;;5095280;28;20028;-73
2020/12/05 10:17:20;;;;;;;15.68;6.20;;;11.80;44.60;;;;;;5110347;28;20050;-73
2020/12/05 10:19:47;;;;;;;18.67;7.90;;;11.70;44.70;;;;;;5112231;28;20048;-73
2020/12/05 10:22:14;;;;;;;19.55;6.10;;;11.80;44.80;;;;;;5102808;28;20032;-73
2020/12/05 10:24:41;;;;;;;14.77;5.72;;;11.70;44.30;;;;;;5094119;28;20036;-73
2020/12/05 10:27:08;;;;;;;13.20;5.93;;;11.70;44.80;;;;;;5109668;28;20042;-73
2020/12/05 10:29:35;;;;;;;13.13;6.38;;;11.50;45.70;;;;;;5112355;28;20042;-73
2020/12/05 10:32:02;;;;;;;15.20;6.57;;;11.40;46.10;;;;;;5107226;28;20159;-73
2020/12/05 10:34:29;;;;;;;13.82;6.53;;;11.40;45.90;;;;;;5093656;28;20392;-73
2020/12/05 10:36:56;;;;;;;19.13;6.65;;;11.50;46.00;;;;;;5094932;28;20461;-72
2020/12/05 10:39:24;;;;;;;16.90;7.78;;;11.50;46.10;;;;;;5094630;28;20036;-72
2020/12/05 10:41:52;;;;;;;17.38;7.20;;;11.50;46.10;;;;;;5099550;28;20032;-72
2020/12/05 10:44:19;;;;;;;22.13;6.63;;;11.40;46.50;;;;;;5105965;28;20020;-73
2020/12/05 10:46:48;;;;;;;13.60;6.00;;;11.30;46.30;;;;;;5111614;28;20027;-73
2020/12/05 10:49:19;;;;;;;18.85;6.85;;;11.40;46.40;;;;;;5093638;28;20059;-72
2020/12/05 10:51:46;;;;;;;;;;;11.40;45.10;;;;;;5111314;28;20023;-72
2020/12/05 10:54:14;;;;;;;11.10;4.30;;;11.50;44.10;;;;;;5114116;28;20311;-72
2020/12/05 10:56:42;;;;;;;6.40;3.28;;;11.40;43.80;;;;;;5095266;28;20043;-73
2020/12/05 10:59:09;;;;;;;5.43;2.60;;;11.40;43.20;;;;;;5102997;28;20047;-72
2020/12/05 11:01:37;;;;;;;8.55;2.40;;;11.60;42.40;;;;;;5108950;28;20028;-73
2020/12/05 11:04:04;;;;;;;8.93;4.22;;;11.60;42.00;;;;;;5093217;28;20039;-73
2020/12/05 11:06:31;;;;;;;11.13;5.05;;;11.70;43.10;;;;;;5104494;28;20020;-73
2020/12/05 11:08:58;;;;;;;10.45;4.65;;;11.80;43.20;;;;;;5111418;28;20019;-73
2020/12/05 11:11:25;;;;;;;11.48;5.28;;;11.80;42.50;;;;;;5102765;28;20392;-73
2020/12/05 11:13:52;;;;;;;10.77;4.65;;;11.90;43.10;;;;;;5093031;28;20020;-73
2020/12/05 11:16:21;;;;;;;12.57;5.10;;;11.90;43.20;;;;;;5101243;28;20034;-73
2020/12/05 11:18:49;;;;;;;13.45;5.07;;;11.80;43.50;;;;;;5111576;28;20404;-72
2020/12/05 11:21:16;;;;;;;13.63;4.65;;;11.60;43.70;;;;;;5112945;28;20404;-72
2020/12/05 11:23:43;;;;;;;8.15;3.45;;;11.60;43.40;;;;;;5093905;28;20028;-73
2020/12/05 11:26:10;;;;;;;6.45;2.63;;;11.70;43.10;;;;;;5093028;28;20024;-72
2020/12/05 11:28:38;;;;;;;12.55;3.70;;;11.70;43.00;;;;;;5109573;28;20024;-74
2020/12/05 11:31:06;;;;;;;8.40;3.03;;;11.90;42.10;;;;;;5097569;28;20027;-73
2020/12/05 11:33:33;;;;;;;6.32;3.17;;;12.10;41.90;;;;;;5100909;28;20028;-73
2020/12/05 11:36:00;;;;;;;10.20;3.00;;;12.30;41.50;;;;;;5111657;28;20027;-73
2020/12/05 11:38:27;;;;;;;9.45;3.85;;;12.30;41.50;;;;;;5112976;28;20101;-74
2020/12/05 11:40:54;;;;;;;7.25;3.42;;;12.20;42.10;;;;;;5110983;28;20043;-75
2020/12/05 11:43:21;;;;;;;14.02;3.63;;;12.10;42.30;;;;;;5100178;28;20035;-73
2020/12/05 11:45:48;;;;;;;7.18;3.33;;;12.00;42.40;;;;;;5092360;28;20028;-74
2020/12/05 11:48:17;;;;;;;10.98;3.15;;;12.20;41.80;;;;;;5106508;28;20024;-73
2020/12/05 11:50:44;;;;;;;15.27;4.40;;;12.60;40.80;;;;;;5112903;28;20027;-74
2020/12/05 11:53:11;;;;;;;12.88;5.88;;;12.90;41.00;;;;;;5095851;28;20031;-72
2020/12/05 11:55:39;;;;;;;17.05;5.65;;;13.10;40.80;;;;;;5092123;28;20146;-72
2020/12/05 11:58:06;;;;;;;11.60;5.40;;;13.20;40.80;;;;;;5109303;28;20034;-73
2020/12/05 12:00:33;;;;;;;16.00;5.10;;;13.20;40.90;;;;;;5105797;28;20039;-72
2020/12/05 12:03:00;;;;;;;10.70;5.25;;;13.30;41.00;;;;;;5093294;28;20031;-73
2020/12/05 12:05:27;;;;;;;12.48;4.82;;;13.30;40.60;;;;;;5093307;28;20032;-73
2020/12/05 12:07:53;;;;;;;15.18;4.70;;;13.20;40.60;;;;;;5095671;28;20023;-72
2020/12/05 12:10:20;;;;;;;13.30;6.10;;;13.10;40.80;;;;;;5112225;28;20038;-72
2020/12/05 12:12:47;;;;;;;15.50;5.50;;;13.10;40.90;;;;;;5110469;28;20035;-72
2020/12/05 12:15:15;;;;;;;12.50;5.20;;;13.10;41.20;;;;;;5108358;28;20036;-73
2020/12/05 12:17:43;;;;;;;11.43;5.18;;;13.00;41.20;;;;;;5110844;28;20035;-72
2020/12/05 12:20:10;;;;;;;14.43;4.25;;;13.00;41.10;;;;;;5092211;28;20039;-72
2020/12/05 12:22:38;;;;;;;11.10;5.07;;;13.20;40.50;;;;;;5105460;28;20427;-72
2020/12/05 12:25:05;;;;;;;11.13;4.50;;;13.30;40.30;;;;;;5097388;28;20505;-72
2020/12/05 12:27:32;;;;;;;9.63;4.03;;;13.50;39.70;;;;;;5091807;28;20028;-74
2020/12/05 12:29:59;;;;;;;10.13;4.22;;;13.70;39.20;;;;;;5104200;28;20031;-73
2020/12/05 12:32:28;;;;;;;14.63;5.03;;;13.60;39.70;;;;;;5111224;28;20409;-74
2020/12/05 12:34:54;;;;;;;17.00;5.00;;;13.20;40.80;;;;;;5110714;28;20027;-70
2020/12/05 12:37:24;;;;;;;13.40;5.28;;;12.80;41.50;;;;;;5110851;28;20024;-74
2020/12/05 12:39:51;;;;;;;12.00;5.53;;;12.50;42.00;;;;;;5110558;28;20387;-75
2020/12/05 12:42:18;;;;;;;13.80;5.30;;;12.30;42.50;;;;;;5112217;28;20039;-76
2020/12/05 12:44:45;;;;;;;9.90;4.13;;;12.40;42.30;;;;;;5108022;28;20052;-76
2020/12/05 12:47:25;;;;;;;20.70;7.65;;;12.30;42.70;;;;;;5101935;28;20016;-71
2020/12/05 12:49:52;;;;;;;14.48;6.13;;;12.10;44.30;;;;;;5094727;28;20028;-71
2020/12/05 12:52:19;;;;;;;14.88;7.38;;;11.90;44.50;;;;;;5109772;28;20019;-71
2020/12/05 12:54:46;;;;;;;21.85;8.00;;;11.70;45.10;;;;;;5091313;28;20051;-71